createdAt,value
2023-01-19T00:00:18.167Z,98400.10
2023-01-19T00:03:26.012Z,98403.23
2023-01-19T00:06:14.310Z,98405.57
2023-01-19T00:09:02.420Z,98406.15
2023-01-19T00:11:50.844Z,98410.73
2023-01-19T00:14:39.135Z,98415.77
2023-01-19T00:17:27.380Z,98418.30
2023-01-19T00:20:15.956Z,98415.08
2023-01-19T00:23:04.947Z,98419.87
2023-01-19T00:25:53.200Z,98421.63
2023-01-19T00:28:41.009Z,98422.10
2023-01-19T00:31:30.156Z,98424.62
2023-01-19T00:34:18.177Z,98427.23
2023-01-19T00:37:07.555Z,98439.02
2023-01-19T00:39:55.755Z,98443.58
2023-01-19T00:42:48.484Z,98442.23
2023-01-19T00:45:36.794Z,98453.09
2023-01-19T00:48:24.701Z,98455.20
2023-01-19T00:51:12.485Z,98459.64
2023-01-19T00:54:04.955Z,98464.64
2023-01-19T00:56:52.719Z,98473.60
2023-01-19T00:59:40.764Z,98477.65
2023-01-19T01:02:28.861Z,98477.86
2023-01-19T01:05:17.945Z,98484.33
2023-01-19T01:08:06.207Z,98484.99
2023-01-19T01:10:55.316Z,98486.83
2023-01-19T01:13:43.039Z,98489.76
2023-01-19T01:16:31.117Z,98493.85
2023-01-19T01:19:30.945Z,98496.48
2023-01-19T01:22:39.251Z,98500.92
2023-01-19T01:25:28.881Z,98506.17
2023-01-19T01:28:16.809Z,98513.73
2023-01-19T01:31:04.907Z,98519.70
2023-01-19T01:33:52.869Z,98525.98
2023-01-19T01:36:40.918Z,98526.21
2023-01-19T01:39:28.739Z,98523.69
2023-01-19T01:42:20.143Z,98528.61
2023-01-19T01:45:31.445Z,98535.98
2023-01-19T01:48:27.336Z,98541.45
2023-01-19T01:51:33.488Z,98545.61
2023-01-19T01:54:31.892Z,98547.59
2023-01-19T01:57:19.877Z,98549.29
2023-01-19T02:00:09.353Z,98547.65
2023-01-19T02:03:00.409Z,98554.75
2023-01-19T02:05:49.342Z,98564.52
2023-01-19T02:09:09.164Z,98569.69
2023-01-19T02:12:15.993Z,98576.34
2023-01-19T02:15:04.556Z,98568.60
2023-01-19T02:17:52.632Z,98575.38
2023-01-19T02:20:45.340Z,98583.05
2023-01-19T02:23:49.186Z,98586.10
2023-01-19T02:26:44.557Z,98584.34
2023-01-19T02:29:34.060Z,98583.20
2023-01-19T02:32:21.945Z,98584.29
2023-01-19T02:35:11.961Z,98583.58
2023-01-19T02:37:59.892Z,98583.08
2023-01-19T02:40:48.853Z,98578.58
2023-01-19T02:43:37.655Z,98584.54
2023-01-19T02:46:25.960Z,98584.09
2023-01-19T02:49:13.759Z,98585.55
2023-01-19T02:52:01.854Z,98580.84
2023-01-19T02:55:08.743Z,98585.00
2023-01-19T02:58:34.182Z,98593.00
2023-01-19T03:01:33.233Z,98595.40
2023-01-19T03:04:27.644Z,98602.64
2023-01-19T03:07:34.703Z,98604.96
2023-01-19T03:11:02.090Z,98603.31
2023-01-19T03:13:53.774Z,98600.92
2023-01-19T03:16:48.850Z,98604.50
2023-01-19T03:19:49.669Z,98604.92
2023-01-19T03:22:37.847Z,98611.29
2023-01-19T03:25:26.342Z,98620.44
2023-01-19T03:28:17.965Z,98616.86
2023-01-19T03:31:22.787Z,98622.43
2023-01-19T03:34:15.276Z,98625.70
2023-01-19T03:37:05.286Z,98628.61
2023-01-19T03:39:53.472Z,98637.02
2023-01-19T03:42:43.517Z,98642.09
2023-01-19T03:45:34.688Z,98640.55
2023-01-19T03:48:23.220Z,98645.19
2023-01-19T03:51:12.103Z,98650.08
2023-01-19T03:54:01.479Z,98652.38
2023-01-19T03:56:49.660Z,98658.16
2023-01-19T03:59:37.633Z,98661.10
2023-01-19T04:02:25.383Z,98662.50
2023-01-19T04:05:14.578Z,98665.85
2023-01-19T04:08:02.177Z,98665.62
2023-01-19T04:10:50.195Z,98672.73
2023-01-19T04:13:38.474Z,98674.39
2023-01-19T04:16:26.575Z,98674.66
2023-01-19T04:19:14.479Z,98676.38
2023-01-19T04:22:05.544Z,98677.17
2023-01-19T04:24:53.573Z,98676.73
2023-01-19T04:27:41.487Z,98673.79
2023-01-19T04:30:29.251Z,98668.48
2023-01-19T04:33:17.187Z,98672.09
2023-01-19T04:36:05.693Z,98669.26
2023-01-19T04:38:53.648Z,98673.10
2023-01-19T04:41:41.200Z,98669.39
2023-01-19T04:44:29.573Z,98669.50
2023-01-19T04:47:17.705Z,98673.10
2023-01-19T04:50:07.107Z,98677.03
2023-01-19T04:52:55.058Z,98681.53
2023-01-19T04:55:42.938Z,98684.83
2023-01-19T04:58:30.944Z,98691.48
2023-01-19T05:01:19.299Z,98693.02
2023-01-19T05:04:07.974Z,98685.39
2023-01-19T05:06:56.105Z,98685.23
2023-01-19T05:09:44.103Z,98687.02
2023-01-19T05:12:32.007Z,98691.45
2023-01-19T05:15:20.146Z,98690.52
2023-01-19T05:18:08.078Z,98694.60
2023-01-19T05:20:56.120Z,98695.81
2023-01-19T05:23:44.769Z,98699.43
2023-01-19T05:26:32.522Z,98691.17
2023-01-19T05:29:20.355Z,98690.91
2023-01-19T05:32:08.380Z,98688.27
2023-01-19T05:34:56.503Z,98687.00
2023-01-19T05:37:44.633Z,98686.27
2023-01-19T05:40:32.764Z,98686.52
2023-01-19T05:43:20.476Z,98690.06
2023-01-19T05:46:08.524Z,98696.46
2023-01-19T05:48:58.664Z,98699.61
2023-01-19T05:51:54.448Z,98694.52
2023-01-19T05:54:51.150Z,98700.15
2023-01-19T05:57:44.062Z,98703.34
2023-01-19T06:00:31.805Z,98712.58
2023-01-19T06:03:20.114Z,98712.08
2023-01-19T06:06:08.167Z,98729.77
2023-01-19T06:08:55.869Z,98730.30
2023-01-19T06:11:45.273Z,98727.36
2023-01-19T06:14:32.893Z,98724.88
2023-01-19T06:17:20.839Z,98717.89
2023-01-19T06:20:10.199Z,98709.69
2023-01-19T06:22:58.882Z,98716.08
2023-01-19T06:25:49.112Z,98717.48
2023-01-19T06:28:37.057Z,98722.41
2023-01-19T06:31:25.062Z,98729.15
2023-01-19T06:34:12.677Z,98741.92
2023-01-19T06:37:00.361Z,98753.29
2023-01-19T06:39:48.031Z,98760.38
2023-01-19T06:42:36.010Z,98763.98
2023-01-19T06:45:24.125Z,98761.35
2023-01-19T06:48:13.410Z,98760.27
2023-01-19T06:51:01.353Z,98756.15
2023-01-19T06:53:49.487Z,98753.73
2023-01-19T06:56:37.210Z,98758.38
2023-01-19T06:59:26.050Z,98762.80
2023-01-19T07:02:27.690Z,98769.65
2023-01-19T07:05:16.697Z,98770.30
2023-01-19T07:08:04.979Z,98778.16
2023-01-19T07:11:23.208Z,98776.48
2023-01-19T07:14:01.585Z,98774.01
2023-01-19T07:16:49.326Z,98779.57
2023-01-19T07:19:37.443Z,98785.81
2023-01-19T07:22:26.110Z,98794.80
2023-01-19T07:25:15.420Z,98801.30
2023-01-19T07:28:04.575Z,98808.29
2023-01-19T07:30:54.689Z,98816.98
2023-01-19T07:33:42.805Z,98822.49
2023-01-19T07:36:31.039Z,98829.09
2023-01-19T07:39:19.814Z,98838.88
2023-01-19T07:42:07.590Z,98849.55
2023-01-19T07:44:58.666Z,98863.07
2023-01-19T07:47:49.879Z,98871.13
2023-01-19T07:50:37.917Z,98880.25
2023-01-19T07:53:25.773Z,98879.59
2023-01-19T07:56:14.761Z,98880.23
2023-01-19T07:59:02.636Z,98887.84
2023-01-19T08:01:51.131Z,98888.50
2023-01-19T08:04:41.847Z,98891.59
2023-01-19T08:07:29.864Z,98887.88
2023-01-19T08:10:23.034Z,98890.73
2023-01-19T08:13:10.779Z,98903.37
2023-01-19T08:15:58.706Z,98909.17
2023-01-19T08:18:46.827Z,98914.10
2023-01-19T08:21:36.486Z,98917.41
2023-01-19T08:24:29.117Z,98917.98
2023-01-19T08:27:17.190Z,98911.62
2023-01-19T08:30:05.722Z,98908.52
2023-01-19T08:32:58.383Z,98916.38
2023-01-19T08:35:50.562Z,98912.88
2023-01-19T08:38:41.364Z,98915.49
2023-01-19T08:41:29.066Z,98912.77
2023-01-19T08:44:17.168Z,98919.80
2023-01-19T08:47:05.068Z,98922.34
2023-01-19T08:49:53.028Z,98932.41
2023-01-19T08:52:40.786Z,98931.11
2023-01-19T08:55:30.303Z,98927.30
2023-01-19T08:58:18.383Z,98931.38
2023-01-19T09:01:08.726Z,98927.13
2023-01-19T09:03:57.119Z,98925.98
2023-01-19T09:06:44.818Z,98927.64
2023-01-19T09:09:32.806Z,98924.92
2023-01-19T09:12:20.292Z,98917.42
2023-01-19T09:15:10.855Z,98916.50
2023-01-19T09:17:59.169Z,98913.23
2023-01-19T09:20:50.336Z,98911.61
2023-01-19T09:23:38.543Z,98902.39
2023-01-19T09:26:27.126Z,98898.09
2023-01-19T09:29:14.663Z,98901.44
2023-01-19T09:32:03.063Z,98908.27
2023-01-19T09:34:51.228Z,98911.86
2023-01-19T09:37:39.437Z,98908.63
2023-01-19T09:40:28.593Z,98910.77
2023-01-19T09:43:39.521Z,98906.96
2023-01-19T09:46:40.329Z,98908.73
2023-01-19T09:49:40.989Z,98901.86
2023-01-19T09:52:33.123Z,98896.25
2023-01-19T09:55:26.355Z,98888.27
2023-01-19T09:58:19.149Z,98890.67
2023-01-19T10:01:35.280Z,98888.36
2023-01-19T10:05:12.397Z,98890.79
2023-01-19T10:08:52.276Z,98893.55
2023-01-19T10:12:08.512Z,98892.67
2023-01-19T10:15:21.504Z,98900.52
2023-01-19T10:18:20.200Z,98894.45
2023-01-19T10:21:15.711Z,98891.02
2023-01-19T10:24:27.634Z,98892.11
2023-01-19T10:27:28.375Z,98890.48
2023-01-19T10:30:24.697Z,98892.59
2023-01-19T10:33:14.300Z,98890.80
2023-01-19T10:36:28.855Z,98885.20
2023-01-19T10:39:19.220Z,98886.27
2023-01-19T10:42:15.398Z,98885.60
2023-01-19T10:45:04.967Z,98886.00
2023-01-19T10:47:54.790Z,98875.33
2023-01-19T10:50:42.997Z,98877.21
2023-01-19T10:53:31.311Z,98878.17
2023-01-19T10:56:35.174Z,98874.71
2023-01-19T10:59:46.685Z,98872.51
2023-01-19T11:02:35.026Z,98867.42
2023-01-19T11:05:30.510Z,98869.73
2023-01-19T11:08:30.953Z,98866.38
2023-01-19T11:11:24.744Z,98870.13
2023-01-19T11:14:24.513Z,98867.80
2023-01-19T11:17:23.472Z,98869.23
2023-01-19T11:20:22.318Z,98871.03
2023-01-19T11:23:23.497Z,98864.13
2023-01-19T11:26:34.896Z,98867.16
2023-01-19T11:29:27.433Z,98861.17
2023-01-19T11:32:22.652Z,98860.04
2023-01-19T11:35:40.483Z,98866.45
2023-01-19T11:38:28.454Z,98861.77
2023-01-19T11:41:20.738Z,98861.36
2023-01-19T11:44:43.550Z,98866.39
2023-01-19T11:47:39.951Z,98863.08
2023-01-19T11:50:41.673Z,98864.63
2023-01-19T11:53:34.488Z,98874.84
2023-01-19T11:56:29.396Z,98873.95
2023-01-19T11:59:18.316Z,98877.91
2023-01-19T12:02:43.639Z,98881.61
2023-01-19T12:05:35.333Z,98883.08
2023-01-19T12:08:30.894Z,98879.46
2023-01-19T12:11:31.598Z,98885.05
2023-01-19T12:15:04.409Z,98879.45
2023-01-19T12:17:57.891Z,98878.67
2023-01-19T12:20:55.632Z,98876.42
2023-01-19T12:24:16.459Z,98873.69
2023-01-19T12:27:27.348Z,98871.77
2023-01-19T12:30:29.190Z,98873.98
2023-01-19T12:33:34.531Z,98869.10
2023-01-19T12:36:35.484Z,98877.74
2023-01-19T12:39:25.283Z,98875.38
2023-01-19T12:42:20.471Z,98879.05
2023-01-19T12:45:20.924Z,98882.92
2023-01-19T12:48:25.392Z,98872.76
2023-01-19T12:51:25.155Z,98875.06
2023-01-19T12:54:32.603Z,98876.52
2023-01-19T12:58:02.744Z,98878.64
2023-01-19T13:01:16.664Z,98883.61
2023-01-19T13:04:27.283Z,98888.09
2023-01-19T13:07:18.116Z,98896.87
2023-01-19T13:10:55.507Z,98898.66
2023-01-19T13:14:05.582Z,98894.92
2023-01-19T13:17:00.877Z,98889.91
2023-01-19T13:19:57.501Z,98896.71
2023-01-19T13:22:52.658Z,98903.14
2023-01-19T13:25:47.434Z,98906.95
2023-01-19T13:28:41.186Z,98906.38
2023-01-19T13:31:36.187Z,98906.00
2023-01-19T13:34:27.951Z,98907.30
2023-01-19T13:37:37.422Z,98909.47
2023-01-19T13:40:36.330Z,98911.64
2023-01-19T13:43:34.803Z,98911.24
2023-01-19T13:46:23.288Z,98913.73
2023-01-19T13:49:29.019Z,98915.14
2023-01-19T13:52:25.984Z,98917.41
2023-01-19T13:55:15.791Z,98913.59
2023-01-19T13:58:03.757Z,98920.54
2023-01-19T14:00:51.559Z,98921.12
2023-01-19T14:03:40.998Z,98923.58
2023-01-19T14:06:34.202Z,98923.30
2023-01-19T14:09:22.761Z,98924.58
2023-01-19T14:12:17.654Z,98932.02
2023-01-19T14:15:13.138Z,98936.64
2023-01-19T14:18:19.460Z,98948.30
2023-01-19T14:21:14.746Z,98951.17
2023-01-19T14:24:20.189Z,98949.58
2023-01-19T14:27:19.360Z,98954.45
2023-01-19T14:30:22.169Z,98954.84
2023-01-19T14:33:42.036Z,98952.11
2023-01-19T14:36:38.241Z,98950.85
2023-01-19T14:39:33.442Z,98956.21
2023-01-19T14:42:50.684Z,98956.63
2023-01-19T14:45:46.938Z,98955.54
2023-01-19T14:48:35.489Z,98951.20
2023-01-19T14:51:26.700Z,98955.35
2023-01-19T14:54:19.465Z,98954.89
2023-01-19T14:57:13.800Z,98958.77
2023-01-19T15:00:11.412Z,98958.50
2023-01-19T15:02:59.531Z,98959.77
2023-01-19T15:05:49.171Z,98963.10
2023-01-19T15:08:39.396Z,98964.15
2023-01-19T15:11:34.162Z,98968.80
2023-01-19T15:14:22.433Z,98973.80
2023-01-19T15:17:27.494Z,98973.83
2023-01-19T15:20:20.731Z,98978.10
2023-01-19T15:23:11.666Z,98976.44
2023-01-19T15:26:03.216Z,98975.20
2023-01-19T15:28:51.529Z,98979.79
2023-01-19T15:31:39.499Z,98975.95
2023-01-19T15:34:27.688Z,98973.84
2023-01-19T15:37:16.037Z,98972.07
2023-01-19T15:40:04.444Z,98978.02
2023-01-19T15:42:55.004Z,98977.69
2023-01-19T15:46:16.453Z,98974.00
2023-01-19T15:49:11.874Z,98975.25
2023-01-19T15:52:02.682Z,98983.22
2023-01-19T15:54:50.673Z,98983.51
2023-01-19T15:57:38.546Z,98983.19
2023-01-19T16:00:26.407Z,98982.54
2023-01-19T16:03:14.372Z,98981.48
2023-01-19T16:06:02.469Z,98984.72
2023-01-19T16:08:50.370Z,98982.74
2023-01-19T16:11:38.434Z,98981.36
2023-01-19T16:14:26.437Z,98992.64
2023-01-19T16:17:14.450Z,98996.39
2023-01-19T16:20:05.093Z,98998.92
2023-01-19T16:22:54.995Z,99002.02
2023-01-19T16:25:45.245Z,99000.60
2023-01-19T16:28:35.690Z,99007.08
2023-01-19T16:31:23.902Z,99002.91
2023-01-19T16:34:12.028Z,99014.44
2023-01-19T16:37:00.377Z,99015.06
2023-01-19T16:39:50.950Z,99015.27
2023-01-19T16:42:40.881Z,99011.88
2023-01-19T16:45:28.877Z,99016.19
2023-01-19T16:48:21.363Z,99013.39
2023-01-19T16:51:09.258Z,99013.52
2023-01-19T16:53:57.508Z,99015.58
2023-01-19T16:56:46.290Z,99021.87
2023-01-19T16:59:34.381Z,99020.61
2023-01-19T17:02:22.014Z,99027.43
2023-01-19T17:05:10.543Z,99035.92
2023-01-19T17:07:58.183Z,99027.20
2023-01-19T17:10:48.204Z,99033.77
2023-01-19T17:13:36.036Z,99030.94
2023-01-19T17:16:25.312Z,99029.39
2023-01-19T17:19:17.709Z,99038.86
2023-01-19T17:22:06.595Z,99045.63
2023-01-19T17:24:54.807Z,99047.18
2023-01-19T17:27:42.837Z,99048.23
2023-01-19T17:30:31.290Z,99053.80
2023-01-19T17:33:23.885Z,99052.77
2023-01-19T17:36:16.186Z,99057.65
2023-01-19T17:39:11.598Z,99060.36
2023-01-19T17:41:59.599Z,99060.34
2023-01-19T17:44:47.576Z,99064.13
2023-01-19T17:47:35.599Z,99064.50
2023-01-19T17:50:23.617Z,99070.11
2023-01-19T17:53:11.939Z,99071.98
2023-01-19T17:56:30.327Z,99068.44
2023-01-19T17:59:18.755Z,99072.28
2023-01-19T18:02:08.639Z,99076.33
2023-01-19T18:04:58.582Z,99077.37
2023-01-19T18:07:47.966Z,99081.16
2023-01-19T18:10:35.860Z,99082.18
2023-01-19T18:13:24.447Z,99079.77
2023-01-19T18:16:16.838Z,99079.73
2023-01-19T18:19:05.046Z,99081.73
2023-01-19T18:21:53.214Z,99081.70
2023-01-19T18:24:41.054Z,99076.79
2023-01-19T18:27:29.433Z,99078.92
2023-01-19T18:30:18.384Z,99078.10
2023-01-19T18:33:06.726Z,99080.11
2023-01-19T18:35:55.177Z,99082.80
2023-01-19T18:38:43.617Z,99085.30
2023-01-19T18:41:31.880Z,99085.14
2023-01-19T18:44:19.568Z,99086.77
2023-01-19T18:47:07.640Z,99087.73
2023-01-19T18:49:55.594Z,99092.23
2023-01-19T18:52:47.855Z,99093.72
2023-01-19T18:55:36.753Z,99096.55
2023-01-19T18:58:28.639Z,99093.95
2023-01-19T19:01:33.106Z,99091.04
2023-01-19T19:04:21.342Z,99086.60
2023-01-19T19:07:09.800Z,99091.67
2023-01-19T19:09:57.536Z,99094.38
2023-01-19T19:12:45.621Z,99092.36
2023-01-19T19:15:34.395Z,99092.15
2023-01-19T19:18:22.844Z,99092.33
2023-01-19T19:21:12.710Z,99089.34
2023-01-19T19:24:00.671Z,99078.72
2023-01-19T19:26:48.985Z,99091.80
2023-01-19T19:29:36.591Z,99089.92
2023-01-19T19:32:24.681Z,99092.02
2023-01-19T19:35:12.696Z,99092.45
2023-01-19T19:38:00.890Z,99082.77
2023-01-19T19:40:48.780Z,99095.01
2023-01-19T19:43:37.864Z,99102.14
2023-01-19T19:46:28.024Z,99099.92
2023-01-19T19:49:21.382Z,99095.36
2023-01-19T19:52:09.085Z,99094.13
2023-01-19T19:54:57.218Z,99096.53
2023-01-19T19:57:45.665Z,99097.65
2023-01-19T20:00:33.561Z,99100.98
2023-01-19T20:03:21.882Z,99100.60
2023-01-19T20:06:14.045Z,99097.45
2023-01-19T20:09:02.150Z,99092.60
2023-01-19T20:11:50.234Z,99096.96
2023-01-19T20:14:38.670Z,99097.77
2023-01-19T20:17:36.140Z,99097.36
2023-01-19T20:20:24.999Z,99094.98
2023-01-19T20:23:13.022Z,99092.52
2023-01-19T20:26:06.269Z,99085.33
2023-01-19T20:28:59.793Z,99094.09
2023-01-19T20:31:53.858Z,99095.16
2023-01-19T20:34:42.023Z,99092.27
2023-01-19T20:37:30.255Z,99095.10
2023-01-19T20:40:18.504Z,99102.36
2023-01-19T20:43:07.826Z,99101.58
2023-01-19T20:45:56.320Z,99107.27
2023-01-19T20:48:45.885Z,99107.48
2023-01-19T20:51:35.662Z,99110.39
2023-01-19T20:54:27.467Z,99108.98
2023-01-19T20:57:15.413Z,99111.93
2023-01-19T21:00:03.799Z,99114.56
2023-01-19T21:02:51.988Z,99115.52
2023-01-19T21:05:40.040Z,99114.69
2023-01-19T21:08:27.727Z,99115.27
2023-01-19T21:11:21.232Z,99114.52
2023-01-19T21:14:09.501Z,99116.03
2023-01-19T21:16:58.550Z,99116.63
2023-01-19T21:19:46.497Z,99119.38
2023-01-19T21:22:34.613Z,99121.22
2023-01-19T21:25:22.946Z,99126.74
2023-01-19T21:28:10.912Z,99123.61
2023-01-19T21:31:07.369Z,99126.23
2023-01-19T21:33:56.241Z,99128.01
2023-01-19T21:36:44.794Z,99130.00
2023-01-19T21:39:32.512Z,99133.38
2023-01-19T21:42:20.713Z,99139.73
2023-01-19T21:45:09.065Z,99139.48
2023-01-19T21:47:57.132Z,99142.73
2023-01-19T21:50:45.727Z,99141.97
2023-01-19T21:53:33.690Z,99142.72
2023-01-19T21:56:22.596Z,99142.24
2023-01-19T21:59:16.032Z,99139.27
2023-01-19T22:02:04.631Z,99141.29
2023-01-19T22:04:52.815Z,99146.64
2023-01-19T22:07:40.830Z,99144.82
2023-01-19T22:10:28.753Z,99147.70
2023-01-19T22:13:16.470Z,99153.23
2023-01-19T22:16:08.962Z,99153.34
2023-01-19T22:19:02.382Z,99156.04
2023-01-19T22:21:50.921Z,99159.45
2023-01-19T22:24:39.423Z,99167.70
2023-01-19T22:27:28.609Z,99172.70
2023-01-19T22:30:17.880Z,99173.54
2023-01-19T22:33:05.638Z,99166.96
2023-01-19T22:35:53.787Z,99171.07
2023-01-19T22:38:42.639Z,99175.23
2023-01-19T22:41:35.855Z,99182.23
2023-01-19T22:44:23.838Z,99185.11
2023-01-19T22:47:12.181Z,99178.78
2023-01-19T22:49:59.934Z,99173.80
2023-01-19T22:52:47.540Z,99182.18
2023-01-19T22:55:35.911Z,99191.10
2023-01-19T22:58:23.861Z,99191.95
2023-01-19T23:01:15.651Z,99192.66
2023-01-19T23:04:04.709Z,99191.73
2023-01-19T23:06:52.613Z,99193.23
2023-01-19T23:09:40.329Z,99187.39
2023-01-19T23:12:28.370Z,99187.69
2023-01-19T23:15:16.283Z,99185.23
2023-01-19T23:18:04.343Z,99187.99
2023-01-19T23:20:52.516Z,99188.21
2023-01-19T23:23:41.195Z,99192.30
2023-01-19T23:26:38.320Z,99194.30
2023-01-19T23:29:26.322Z,99203.82
2023-01-19T23:32:14.604Z,99207.73
2023-01-19T23:35:02.596Z,99208.02
2023-01-19T23:37:50.812Z,99209.98
2023-01-19T23:40:38.696Z,99206.87
2023-01-19T23:43:26.907Z,99206.38
2023-01-19T23:46:16.933Z,99206.88
2023-01-19T23:49:05.122Z,99210.14
2023-01-19T23:51:52.923Z,99213.14
2023-01-19T23:54:40.894Z,99218.61
2023-01-19T23:57:28.935Z,99219.77
